createdAt,value
2022-08-17T00:01:52.817Z,8.32
2022-08-17T00:04:25.660Z,8.57
2022-08-17T00:06:55.547Z,8.02
2022-08-17T00:09:25.398Z,8.77
2022-08-17T00:12:34.699Z,8.73
2022-08-17T00:14:46.163Z,9.02
2022-08-17T00:17:16.034Z,8.65
2022-08-17T00:19:47.394Z,9.48
2022-08-17T00:22:33.564Z,9.55
2022-08-17T00:25:09.560Z,8.55
2022-08-17T00:27:39.455Z,9.02
2022-08-17T00:30:13.040Z,8.00
2022-08-17T00:33:14.210Z,9.43
2022-08-17T00:35:37.356Z,8.82
2022-08-17T00:38:09.909Z,9.25
2022-08-17T00:40:44.913Z,8.77
2022-08-17T00:43:18.415Z,8.38
2022-08-17T00:45:48.706Z,9.32
2022-08-17T00:48:27.188Z,9.77
2022-08-17T00:51:06.682Z,9.75
2022-08-17T00:53:40.628Z,8.80
2022-08-17T00:56:16.206Z,8.60
2022-08-17T00:58:46.399Z,8.90
2022-08-17T01:01:21.607Z,8.50
2022-08-17T01:03:54.230Z,9.52
2022-08-17T01:06:31.213Z,9.27
2022-08-17T01:09:03.520Z,8.98
2022-08-17T01:11:36.266Z,9.25
2022-08-17T01:14:08.953Z,9.30
2022-08-17T01:16:39.630Z,8.98
2022-08-17T01:19:16.736Z,8.38
2022-08-17T01:21:56.198Z,8.75
2022-08-17T01:24:27.949Z,9.10
2022-08-17T01:26:58.141Z,8.85
2022-08-17T01:29:31.187Z,9.45
2022-08-17T01:32:04.811Z,9.90
2022-08-17T01:34:42.477Z,9.05
2022-08-17T01:37:13.889Z,8.90
2022-08-17T01:39:48.811Z,8.65
2022-08-17T01:42:31.820Z,9.10
2022-08-17T01:45:06.757Z,8.83
2022-08-17T01:47:37.390Z,8.80
2022-08-17T01:50:10.160Z,9.32
2022-08-17T01:52:40.742Z,8.83
2022-08-17T01:55:16.177Z,8.93
2022-08-17T01:57:46.594Z,9.73
2022-08-17T02:00:18.340Z,9.07
2022-08-17T02:02:48.701Z,9.57
2022-08-17T02:05:19.525Z,9.18
2022-08-17T02:08:00.258Z,9.98
2022-08-17T02:10:34.061Z,8.65
2022-08-17T02:13:05.951Z,9.32
2022-08-17T02:15:36.377Z,8.75
2022-08-17T02:18:07.347Z,9.30
2022-08-17T02:20:41.568Z,8.85
2022-08-17T02:23:14.495Z,9.55
2022-08-17T02:25:48.824Z,9.35
2022-08-17T02:28:19.163Z,9.32
2022-08-17T02:30:59.082Z,9.57
2022-08-17T02:33:37.292Z,10.05
2022-08-17T02:36:14.608Z,9.65
2022-08-17T02:38:45.734Z,9.05
2022-08-17T02:41:17.053Z,9.10
2022-08-17T02:43:46.984Z,9.60
2022-08-17T02:46:16.920Z,8.68
2022-08-17T02:48:47.083Z,9.43
2022-08-17T02:51:18.107Z,10.23
2022-08-17T02:53:48.028Z,9.95
2022-08-17T02:56:19.306Z,9.18
2022-08-17T02:58:49.309Z,10.27
2022-08-17T03:01:19.305Z,9.45
2022-08-17T03:03:49.360Z,10.15
2022-08-17T03:06:19.356Z,9.27
2022-08-17T03:08:49.318Z,9.80
2022-08-17T03:11:20.536Z,10.10
2022-08-17T03:13:51.469Z,9.63
2022-08-17T03:16:21.700Z,9.50
2022-08-17T03:18:51.793Z,9.40
2022-08-17T03:21:21.911Z,9.75
2022-08-17T03:23:54.577Z,10.15
2022-08-17T03:26:26.006Z,10.33
2022-08-17T03:28:59.914Z,9.10
2022-08-17T03:31:29.922Z,10.45
2022-08-17T03:34:02.196Z,11.05
2022-08-17T03:36:32.131Z,10.18
2022-08-17T03:39:06.590Z,10.35
2022-08-17T03:41:39.175Z,10.40
2022-08-17T03:44:09.149Z,10.23
2022-08-17T03:46:56.123Z,10.10
2022-08-17T03:49:45.769Z,10.45
2022-08-17T03:52:33.457Z,9.73
2022-08-17T03:55:35.962Z,10.00
2022-08-17T03:58:07.456Z,9.20
2022-08-17T04:00:39.832Z,9.85
2022-08-17T04:03:09.985Z,11.23
2022-08-17T04:05:40.238Z,9.88
2022-08-17T04:08:11.020Z,10.00
2022-08-17T04:10:44.766Z,12.50
2022-08-17T04:13:24.841Z,10.27
2022-08-17T04:15:56.215Z,11.23
2022-08-17T04:18:26.680Z,10.35
2022-08-17T04:20:57.003Z,9.63
2022-08-17T04:23:33.032Z,9.90
2022-08-17T04:26:04.037Z,9.95
2022-08-17T04:28:35.434Z,10.18
2022-08-17T04:31:05.787Z,9.43
2022-08-17T04:33:37.812Z,10.88
2022-08-17T04:36:09.938Z,10.65
2022-08-17T04:38:41.938Z,10.55
2022-08-17T04:41:30.932Z,9.43
2022-08-17T04:44:04.008Z,9.68
2022-08-17T04:46:36.464Z,9.20
2022-08-17T04:49:08.820Z,10.48
2022-08-17T04:51:45.473Z,11.32
2022-08-17T04:54:24.917Z,11.65
2022-08-17T04:56:54.867Z,9.70
2022-08-17T04:59:26.141Z,10.50
2022-08-17T05:01:56.050Z,9.98
2022-08-17T05:04:33.923Z,10.23
2022-08-17T05:07:05.163Z,9.43
2022-08-17T05:09:35.850Z,10.27
2022-08-17T05:12:06.902Z,10.25
2022-08-17T05:14:39.956Z,10.02
2022-08-17T05:17:11.273Z,10.38
2022-08-17T05:19:41.721Z,10.68
2022-08-17T05:22:11.718Z,9.52
2022-08-17T05:24:43.722Z,10.18
2022-08-17T05:27:25.453Z,9.77
2022-08-17T05:30:01.091Z,9.85
2022-08-17T05:32:38.805Z,8.52
2022-08-17T05:35:17.889Z,9.38
2022-08-17T05:37:47.855Z,8.45
2022-08-17T05:40:19.013Z,9.20
2022-08-17T05:42:49.623Z,8.90
2022-08-17T05:45:39.886Z,9.18
2022-08-17T05:48:13.317Z,9.45
2022-08-17T05:50:50.700Z,10.32
2022-08-17T05:53:28.473Z,8.82
2022-08-17T05:56:11.626Z,8.70
2022-08-17T05:59:09.803Z,9.10
2022-08-17T06:01:53.358Z,8.65
2022-08-17T06:04:32.262Z,9.68
2022-08-17T06:07:13.211Z,8.13
2022-08-17T06:09:50.669Z,8.85
2022-08-17T06:12:35.656Z,9.25
2022-08-17T06:15:26.233Z,9.73
2022-08-17T06:18:01.140Z,9.00
2022-08-17T06:20:47.464Z,9.02
2022-08-17T06:23:27.615Z,11.30
2022-08-17T06:26:03.789Z,9.13
2022-08-17T06:28:39.507Z,8.60
2022-08-17T06:31:16.803Z,8.57
2022-08-17T06:33:48.209Z,8.73
2022-08-17T06:36:33.689Z,9.48
2022-08-17T06:39:19.441Z,9.98
2022-08-17T06:42:02.324Z,9.30
2022-08-17T06:44:47.609Z,9.55
2022-08-17T06:47:27.940Z,9.10
2022-08-17T06:50:14.456Z,8.38
2022-08-17T06:52:52.511Z,8.30
2022-08-17T06:55:27.519Z,8.45
2022-08-17T06:58:02.138Z,11.68
2022-08-17T07:00:42.949Z,8.35
2022-08-17T07:03:29.492Z,8.52
2022-08-17T07:06:08.113Z,10.23
2022-08-17T07:08:48.737Z,9.25
2022-08-17T07:11:21.824Z,10.10
2022-08-17T07:14:02.492Z,8.38
2022-08-17T07:16:39.167Z,7.80
2022-08-17T07:19:11.201Z,8.57
2022-08-17T07:21:55.109Z,8.23
2022-08-17T07:24:37.330Z,8.10
2022-08-17T07:27:11.732Z,8.90
2022-08-17T07:29:46.434Z,8.73
2022-08-17T07:32:20.116Z,9.23
2022-08-17T07:35:13.053Z,9.43
2022-08-17T07:37:53.452Z,9.75
2022-08-17T07:40:28.167Z,9.10
2022-08-17T07:43:23.981Z,8.27
2022-08-17T07:46:44.966Z,8.20
2022-08-17T07:49:21.201Z,7.25
2022-08-17T07:52:48.025Z,6.50
2022-08-17T07:54:56.123Z,7.50
2022-08-17T07:57:37.056Z,8.07
2022-08-17T08:00:32.466Z,7.95
2022-08-17T08:03:16.673Z,8.18
2022-08-17T08:05:53.571Z,7.38
2022-08-17T08:08:31.093Z,7.93
2022-08-17T08:11:07.345Z,7.38
2022-08-17T08:13:45.105Z,7.50
2022-08-17T08:16:22.688Z,6.75
2022-08-17T08:18:57.555Z,7.10
2022-08-17T08:21:42.284Z,7.68
2022-08-17T08:24:36.541Z,7.80
2022-08-17T08:27:15.991Z,6.95
2022-08-17T08:29:53.991Z,7.88
2022-08-17T08:32:38.281Z,8.13
2022-08-17T08:35:13.101Z,7.63
2022-08-17T08:37:53.431Z,6.85
2022-08-17T08:40:39.992Z,7.50
2022-08-17T08:43:23.267Z,8.55
2022-08-17T08:46:02.726Z,7.50
2022-08-17T08:48:58.694Z,7.43
2022-08-17T08:51:43.291Z,7.05
2022-08-17T08:54:28.567Z,7.53
2022-08-17T08:57:30.901Z,8.38
2022-08-17T09:00:14.741Z,7.50
2022-08-17T09:03:13.137Z,7.07
2022-08-17T09:06:06.886Z,7.82
2022-08-17T09:12:02.639Z,13.55
2022-08-17T09:14:47.142Z,8.38
2022-08-17T09:17:23.098Z,7.70
2022-08-17T09:20:01.133Z,6.85
2022-08-17T09:22:37.469Z,7.10
2022-08-17T09:25:12.051Z,7.53
2022-08-17T09:27:52.117Z,7.55
2022-08-17T09:30:23.728Z,7.30
2022-08-17T09:32:59.886Z,7.22
2022-08-17T09:35:39.509Z,7.43
2022-08-17T09:38:22.443Z,7.45
2022-08-17T09:40:58.574Z,7.90
2022-08-17T09:43:39.978Z,7.00
2022-08-17T09:46:15.675Z,13.13
2022-08-17T09:48:51.740Z,15.60
2022-08-17T09:51:30.379Z,8.85
2022-08-17T09:54:34.932Z,6.82
2022-08-17T09:57:28.032Z,7.93
2022-08-17T10:00:07.593Z,8.43
2022-08-17T10:03:09.633Z,8.07
2022-08-17T10:05:47.707Z,7.13
2022-08-17T10:08:28.691Z,7.45
2022-08-17T10:11:12.780Z,8.85
2022-08-17T10:13:53.367Z,6.32
2022-08-17T10:16:32.028Z,6.80
2022-08-17T10:19:11.552Z,11.10
2022-08-17T10:22:32.509Z,10.57
2022-08-17T10:25:22.332Z,9.82
2022-08-17T10:27:58.814Z,8.75
2022-08-17T10:30:34.585Z,8.02
2022-08-17T10:33:07.967Z,6.28
2022-08-17T10:38:31.154Z,6.10
2022-08-17T10:41:13.461Z,6.68
2022-08-17T10:43:55.849Z,6.57
2022-08-17T10:47:02.698Z,7.40
2022-08-17T10:49:35.121Z,6.90
2022-08-17T10:52:24.904Z,6.63
2022-08-17T10:55:15.085Z,6.53
2022-08-17T10:57:46.387Z,6.90
2022-08-17T11:00:57.978Z,7.13
2022-08-17T11:03:29.701Z,6.63
2022-08-17T11:06:12.764Z,7.28
2022-08-17T11:09:21.089Z,6.70
2022-08-17T11:12:11.477Z,6.60
2022-08-17T11:14:57.988Z,5.78
2022-08-17T11:18:01.499Z,6.40
2022-08-17T11:21:10.557Z,7.13
2022-08-17T11:24:07.300Z,5.45
2022-08-17T11:26:42.240Z,6.28
2022-08-17T11:29:20.786Z,6.47
2022-08-17T11:32:06.089Z,6.28
2022-08-17T11:34:36.741Z,6.13
2022-08-17T11:37:34.097Z,6.45
2022-08-17T11:40:29.485Z,5.90
2022-08-17T11:43:29.933Z,6.30
2022-08-17T11:46:18.881Z,6.45
2022-08-17T11:49:17.900Z,7.72
2022-08-17T11:52:35.959Z,6.35
2022-08-17T11:55:33.953Z,6.78
2022-08-17T11:58:01.626Z,6.20
2022-08-17T12:00:52.509Z,5.90
2022-08-17T12:03:53.721Z,6.45
2022-08-17T12:06:49.421Z,6.03
2022-08-17T12:12:12.523Z,5.60
2022-08-17T12:17:42.827Z,5.63
2022-08-17T12:20:16.366Z,6.70
2022-08-17T12:25:33.121Z,6.70
2022-08-17T12:28:07.731Z,6.20
2022-08-17T12:30:38.959Z,6.35
2022-08-17T12:33:25.789Z,5.82
2022-08-17T12:36:03.925Z,5.95
2022-08-17T12:38:36.272Z,6.93
2022-08-17T12:41:23.051Z,5.72
2022-08-17T12:44:01.695Z,5.75
2022-08-17T12:46:35.843Z,5.50
2022-08-17T12:49:13.873Z,4.95
2022-08-17T12:51:45.710Z,6.03
2022-08-17T12:54:26.757Z,6.45
2022-08-17T12:56:57.135Z,5.32
2022-08-17T12:59:30.078Z,5.95
2022-08-17T13:02:01.924Z,5.57
2022-08-17T13:04:33.004Z,6.03
2022-08-17T13:07:02.887Z,5.40
2022-08-17T13:09:35.476Z,5.82
2022-08-17T13:12:11.027Z,6.35
2022-08-17T13:14:47.715Z,5.53
2022-08-17T13:17:27.591Z,5.80
2022-08-17T13:19:58.301Z,5.60
2022-08-17T13:22:30.605Z,6.05
2022-08-17T13:25:07.126Z,5.60
2022-08-17T13:27:38.328Z,7.18
2022-08-17T13:30:14.962Z,6.68
2022-08-17T13:32:47.294Z,6.25
2022-08-17T13:35:45.892Z,6.60
2022-08-17T13:38:40.575Z,5.10
2022-08-17T13:41:30.937Z,5.35
2022-08-17T13:44:00.847Z,5.80
2022-08-17T13:46:34.208Z,6.03
2022-08-17T13:49:07.286Z,6.07
2022-08-17T13:51:44.522Z,6.20
2022-08-17T13:54:25.765Z,5.88
2022-08-17T13:57:01.964Z,6.10
2022-08-17T13:59:55.214Z,6.05
2022-08-17T14:02:28.477Z,6.97
2022-08-17T14:05:00.604Z,6.68
2022-08-17T14:07:34.807Z,6.78
2022-08-17T14:10:10.746Z,6.68
2022-08-17T14:12:44.720Z,6.72
2022-08-17T14:15:20.571Z,7.15
2022-08-17T14:17:53.285Z,7.05
2022-08-17T14:20:24.638Z,6.57
2022-08-17T14:22:55.755Z,6.88
2022-08-17T14:25:28.740Z,5.88
2022-08-17T14:27:59.148Z,6.43
2022-08-17T14:30:30.016Z,6.28
2022-08-17T14:33:02.264Z,6.07
2022-08-17T14:35:32.249Z,6.20
2022-08-17T14:38:03.178Z,7.00
2022-08-17T14:40:34.762Z,7.30
2022-08-17T14:43:05.107Z,6.25
2022-08-17T14:45:35.001Z,10.30
2022-08-17T14:48:07.978Z,5.95
2022-08-17T14:50:40.989Z,6.30
2022-08-17T14:53:13.253Z,26.67
2022-08-17T14:55:45.812Z,46.67
2022-08-17T14:58:19.965Z,30.75
2022-08-17T15:00:51.000Z,8.13
2022-08-17T15:03:22.824Z,11.63
2022-08-17T15:05:52.797Z,21.15
2022-08-17T15:08:22.552Z,34.97
2022-08-17T15:10:54.391Z,22.70
2022-08-17T15:13:27.132Z,27.30
2022-08-17T15:15:59.305Z,20.75
2022-08-17T15:18:31.457Z,9.52
2022-08-17T15:21:03.897Z,7.78
2022-08-17T15:23:34.294Z,7.00
2022-08-17T15:26:04.309Z,7.47
2022-08-17T15:28:34.581Z,7.43
2022-08-17T15:31:06.662Z,8.32
2022-08-17T15:33:38.094Z,7.32
2022-08-17T15:36:09.361Z,7.70
2022-08-17T15:38:40.404Z,8.18
2022-08-17T15:41:15.219Z,9.02
2022-08-17T15:43:46.869Z,12.45
2022-08-17T15:46:18.909Z,11.25
2022-08-17T15:48:52.001Z,10.20
2022-08-17T15:51:24.969Z,7.47
2022-08-17T15:53:57.425Z,9.52
2022-08-17T15:56:29.281Z,7.57
2022-08-17T15:59:01.268Z,7.93
2022-08-17T16:02:16.285Z,6.13
2022-08-17T16:04:29.920Z,7.05
2022-08-17T16:07:01.181Z,6.93
2022-08-17T16:09:31.140Z,6.97
2022-08-17T16:12:10.694Z,7.03
2022-08-17T16:14:41.208Z,7.60
2022-08-17T16:17:38.747Z,7.03
2022-08-17T16:20:02.687Z,6.32
2022-08-17T16:22:34.761Z,6.43
2022-08-17T16:25:09.094Z,7.15
2022-08-17T16:27:39.375Z,8.80
2022-08-17T16:30:16.431Z,8.00
2022-08-17T16:32:48.447Z,6.78
2022-08-17T16:35:21.326Z,8.35
2022-08-17T16:37:53.125Z,7.13
2022-08-17T16:40:24.213Z,7.70
2022-08-17T16:42:55.250Z,8.23
2022-08-17T16:48:01.587Z,8.32
2022-08-17T16:50:34.028Z,7.82
2022-08-17T16:53:06.634Z,8.02
2022-08-17T16:55:36.822Z,7.65
2022-08-17T16:58:08.890Z,7.80
2022-08-17T17:00:39.470Z,8.10
2022-08-17T17:03:19.223Z,8.00
2022-08-17T17:06:03.871Z,7.97
2022-08-17T17:08:44.556Z,8.20
2022-08-17T17:11:26.127Z,8.32
2022-08-17T17:13:59.696Z,8.10
2022-08-17T17:16:39.077Z,8.68
2022-08-17T17:19:12.845Z,7.65
2022-08-17T17:24:22.239Z,7.97
2022-08-17T17:27:10.417Z,8.02
2022-08-17T17:29:52.767Z,7.85
2022-08-17T17:32:38.132Z,7.40
2022-08-17T17:35:17.125Z,7.90
2022-08-17T17:37:48.737Z,7.55
2022-08-17T17:40:23.169Z,7.85
2022-08-17T17:42:55.646Z,8.10
2022-08-17T17:45:31.399Z,6.80
2022-08-17T17:48:02.337Z,7.93
2022-08-17T17:50:39.151Z,7.82
2022-08-17T17:53:35.251Z,7.75
2022-08-17T17:56:44.449Z,7.57
2022-08-17T17:59:21.693Z,7.47
2022-08-17T18:02:03.046Z,7.20
2022-08-17T18:04:44.771Z,7.28
2022-08-17T18:07:24.403Z,7.75
2022-08-17T18:10:19.649Z,7.23
2022-08-17T18:13:09.941Z,7.43
2022-08-17T18:15:51.405Z,7.85
2022-08-17T18:18:38.020Z,7.70
2022-08-17T18:21:19.440Z,8.52
2022-08-17T18:23:55.707Z,8.10
2022-08-17T18:26:44.657Z,9.23
2022-08-17T18:29:24.501Z,9.10
2022-08-17T18:32:29.428Z,10.98
2022-08-17T18:35:04.711Z,11.55
2022-08-17T18:37:42.681Z,11.43
2022-08-17T18:40:29.474Z,11.07
2022-08-17T18:43:08.364Z,9.95
2022-08-17T18:45:42.307Z,8.32
2022-08-17T18:48:30.689Z,8.63
2022-08-17T18:51:26.480Z,8.82
2022-08-17T18:54:19.361Z,9.18
2022-08-17T18:56:54.726Z,8.02
2022-08-17T18:59:35.724Z,8.18
2022-08-17T19:02:43.321Z,7.72
2022-08-17T19:05:26.272Z,8.60
2022-08-17T19:08:16.689Z,8.00
2022-08-17T19:10:48.633Z,7.38
2022-08-17T19:13:24.437Z,8.45
2022-08-17T19:16:11.454Z,7.75
2022-08-17T19:18:49.439Z,7.60
2022-08-17T19:21:24.133Z,7.30
2022-08-17T19:24:01.650Z,8.43
2022-08-17T19:26:53.827Z,8.38
2022-08-17T19:29:31.893Z,7.55
2022-08-17T19:32:08.749Z,7.30
2022-08-17T19:34:44.599Z,8.13
2022-08-17T19:37:28.639Z,8.05
2022-08-17T19:42:42.553Z,7.82
2022-08-17T19:45:23.951Z,8.27
2022-08-17T19:48:05.510Z,8.38
2022-08-17T19:50:44.925Z,8.63
2022-08-17T19:53:36.850Z,9.00
2022-08-17T19:56:26.235Z,8.55
2022-08-17T19:59:02.234Z,8.07
2022-08-17T20:01:39.224Z,7.57
2022-08-17T20:04:17.253Z,8.35
2022-08-17T20:06:50.332Z,7.65
2022-08-17T20:09:24.704Z,7.80
2022-08-17T20:12:07.170Z,7.80
2022-08-17T20:14:55.661Z,7.47
2022-08-17T20:17:31.926Z,7.82
2022-08-17T20:20:19.825Z,9.15
2022-08-17T20:22:59.860Z,7.82
2022-08-17T20:25:39.527Z,8.00
2022-08-17T20:28:22.924Z,8.52
2022-08-17T20:30:53.815Z,7.95
2022-08-17T20:33:27.252Z,7.50
2022-08-17T20:36:22.752Z,7.43
2022-08-17T20:38:55.704Z,8.52
2022-08-17T20:41:27.870Z,7.50
2022-08-17T20:44:06.533Z,6.90
2022-08-17T20:47:04.704Z,8.70
2022-08-17T20:49:48.559Z,7.72
2022-08-17T20:52:45.392Z,7.38
2022-08-17T20:55:53.306Z,7.32
2022-08-17T20:58:47.214Z,6.90
2022-08-17T21:01:24.458Z,7.38
2022-08-17T21:03:56.124Z,7.75
2022-08-17T21:06:26.610Z,6.72
2022-08-17T21:09:19.833Z,7.03
2022-08-17T21:12:04.303Z,7.88
2022-08-17T21:14:45.680Z,6.45
2022-08-17T21:17:41.910Z,7.68
2022-08-17T21:20:32.328Z,7.07
2022-08-17T21:23:25.749Z,7.55
2022-08-17T21:26:17.382Z,7.70
2022-08-17T21:29:03.602Z,7.47
2022-08-17T21:35:24.189Z,7.50
2022-08-17T21:38:00.014Z,6.93
2022-08-17T21:40:33.218Z,6.82
2022-08-17T21:43:18.145Z,7.65
2022-08-17T21:45:57.797Z,6.90
2022-08-17T21:48:29.348Z,6.78
2022-08-17T21:51:04.733Z,7.13
2022-08-17T21:53:40.207Z,6.90
2022-08-17T21:56:13.185Z,6.47
2022-08-17T21:58:48.556Z,7.35
2022-08-17T22:01:25.337Z,6.13
2022-08-17T22:04:00.047Z,7.05
2022-08-17T22:06:34.217Z,6.32
2022-08-17T22:09:16.009Z,6.80
2022-08-17T22:11:52.673Z,6.68
2022-08-17T22:14:27.213Z,6.80
2022-08-17T22:17:20.672Z,7.00
2022-08-17T22:19:53.291Z,6.60
2022-08-17T22:22:59.971Z,7.03
2022-08-17T22:25:31.132Z,6.93
2022-08-17T22:28:04.074Z,7.07
2022-08-17T22:30:38.368Z,7.03
2022-08-17T22:33:32.050Z,7.15
2022-08-17T22:36:29.107Z,6.97
2022-08-17T22:39:01.467Z,7.50
2022-08-17T22:41:40.503Z,6.55
2022-08-17T22:44:18.176Z,6.82
2022-08-17T22:47:04.535Z,7.68
2022-08-17T22:49:38.665Z,6.40
2022-08-17T22:52:33.098Z,7.25
2022-08-17T22:55:25.150Z,7.18
2022-08-17T22:58:14.657Z,7.63
2022-08-17T23:00:47.425Z,7.65
2022-08-17T23:03:20.752Z,6.77
2022-08-17T23:08:35.729Z,6.93
2022-08-17T23:11:07.670Z,7.25
2022-08-17T23:13:38.433Z,7.78
2022-08-17T23:16:08.930Z,6.80
2022-08-17T23:18:40.225Z,8.27
2022-08-17T23:21:10.193Z,7.53
2022-08-17T23:23:46.320Z,7.20
2022-08-17T23:26:16.857Z,7.20
2022-08-17T23:28:47.101Z,7.28
2022-08-17T23:31:19.641Z,7.25
2022-08-17T23:33:59.252Z,7.28
2022-08-17T23:36:29.493Z,6.70
2022-08-17T23:38:59.852Z,7.50
2022-08-17T23:41:34.135Z,7.07
2022-08-17T23:44:07.132Z,6.72
2022-08-17T23:46:37.244Z,7.73
2022-08-17T23:49:08.832Z,7.35
2022-08-17T23:51:42.547Z,7.28
2022-08-17T23:54:16.995Z,6.63
2022-08-17T23:56:47.102Z,6.22
2022-08-17T23:59:18.848Z,6.60
